createdAt,value
2022-10-08T00:00:06.261Z,8.05
2022-10-08T00:03:10.027Z,8.90
2022-10-08T00:06:15.190Z,15.10
2022-10-08T00:09:17.613Z,7.53
2022-10-08T00:12:20.059Z,10.02
2022-10-08T00:15:22.515Z,9.23
2022-10-08T00:18:26.871Z,13.50
2022-10-08T00:21:31.555Z,9.65
2022-10-08T00:24:34.162Z,11.10
2022-10-08T00:27:36.624Z,9.73
2022-10-08T00:30:39.985Z,11.25
2022-10-08T00:33:43.802Z,11.23
2022-10-08T00:36:47.428Z,9.15
2022-10-08T00:39:49.891Z,10.60
2022-10-08T00:42:53.555Z,13.90
2022-10-08T00:45:56.514Z,10.77
2022-10-08T00:49:05.741Z,11.32
2022-10-08T00:52:08.962Z,12.77
2022-10-08T00:55:13.535Z,10.27
2022-10-08T00:58:20.206Z,8.73
2022-10-08T01:01:23.059Z,14.68
2022-10-08T01:04:27.415Z,9.68
2022-10-08T01:07:35.619Z,14.32
2022-10-08T01:10:46.570Z,11.48
2022-10-08T01:13:57.335Z,8.55
2022-10-08T01:17:07.819Z,8.07
2022-10-08T01:20:32.247Z,8.88
2022-10-08T01:23:50.673Z,10.45
2022-10-08T01:27:02.310Z,8.00
2022-10-08T01:30:11.332Z,12.15
2022-10-08T01:33:18.762Z,7.07
2022-10-08T01:36:23.271Z,10.18
2022-10-08T01:39:29.933Z,11.95
2022-10-08T01:42:35.782Z,9.88
2022-10-08T01:45:46.859Z,10.52
2022-10-08T01:48:52.468Z,10.27
2022-10-08T01:51:58.567Z,8.98
2022-10-08T01:55:05.263Z,7.88
2022-10-08T01:58:10.227Z,9.52
2022-10-08T02:01:19.693Z,11.18
2022-10-08T02:04:34.477Z,8.98
2022-10-08T02:07:38.802Z,10.50
2022-10-08T02:10:41.588Z,10.30
2022-10-08T02:13:58.201Z,11.60
2022-10-08T02:17:13.592Z,11.57
2022-10-08T02:20:22.438Z,11.00
2022-10-08T02:23:29.797Z,9.15
2022-10-08T02:26:36.388Z,11.05
2022-10-08T02:29:43.281Z,8.50
2022-10-08T02:32:52.634Z,9.52
2022-10-08T02:35:58.506Z,10.65
2022-10-08T02:39:04.841Z,10.25
2022-10-08T02:42:11.934Z,8.30
2022-10-08T02:45:19.893Z,9.82
2022-10-08T02:48:31.273Z,10.60
2022-10-08T02:51:39.191Z,8.80
2022-10-08T02:54:45.336Z,9.23
2022-10-08T02:57:55.280Z,11.02
2022-10-08T03:01:01.741Z,13.15
2022-10-08T03:04:10.009Z,9.80
2022-10-08T03:07:13.695Z,8.32
2022-10-08T03:10:16.339Z,11.95
2022-10-08T03:13:19.341Z,10.98
2022-10-08T03:16:24.313Z,9.98
2022-10-08T03:19:28.587Z,10.70
2022-10-08T03:22:31.862Z,11.68
2022-10-08T03:25:34.329Z,16.35
2022-10-08T03:28:36.856Z,13.40
2022-10-08T03:31:39.505Z,13.63
2022-10-08T03:34:43.300Z,10.68
2022-10-08T03:37:45.805Z,12.07
2022-10-08T03:40:56.507Z,13.05
2022-10-08T03:44:00.699Z,13.30
2022-10-08T03:47:03.198Z,12.20
2022-10-08T03:50:10.966Z,14.57
2022-10-08T03:53:13.423Z,10.27
2022-10-08T03:56:18.805Z,14.32
2022-10-08T03:59:21.410Z,13.45
2022-10-08T04:02:23.918Z,13.82
2022-10-08T04:05:27.799Z,12.35
2022-10-08T04:08:30.559Z,10.80
2022-10-08T04:11:33.026Z,12.38
2022-10-08T04:14:35.565Z,12.50
2022-10-08T04:17:38.085Z,13.35
2022-10-08T04:20:42.317Z,12.48
2022-10-08T04:23:45.592Z,9.85
2022-10-08T04:26:48.081Z,14.05
2022-10-08T04:29:50.554Z,10.55
2022-10-08T04:32:54.061Z,11.15
2022-10-08T04:36:00.355Z,13.35
2022-10-08T04:39:03.036Z,10.45
2022-10-08T04:42:05.702Z,15.68
2022-10-08T04:45:08.846Z,13.32
2022-10-08T04:48:11.456Z,11.05
2022-10-08T04:51:15.665Z,18.15
2022-10-08T04:54:18.132Z,11.35
2022-10-08T04:57:20.628Z,13.07
2022-10-08T05:00:24.280Z,12.38
2022-10-08T05:03:26.756Z,8.95
2022-10-08T05:06:32.527Z,13.73
2022-10-08T05:09:35.018Z,17.40
2022-10-08T05:12:37.538Z,12.02
2022-10-08T05:15:40.034Z,11.52
2022-10-08T05:18:43.237Z,14.50
2022-10-08T05:21:47.033Z,10.02
2022-10-08T05:24:49.514Z,12.93
2022-10-08T05:27:51.961Z,14.18
2022-10-08T05:30:59.773Z,14.90
2022-10-08T05:34:02.270Z,10.32
2022-10-08T05:37:06.066Z,11.65
2022-10-08T05:40:09.148Z,13.30
2022-10-08T05:43:11.638Z,10.85
2022-10-08T05:46:14.321Z,10.93
2022-10-08T05:49:19.758Z,11.35
2022-10-08T05:52:23.567Z,16.90
2022-10-08T05:55:26.318Z,15.85
2022-10-08T05:58:30.544Z,10.75
2022-10-08T06:01:34.999Z,17.48
2022-10-08T06:04:37.588Z,11.82
2022-10-08T06:07:41.396Z,10.90
2022-10-08T06:10:49.792Z,13.00
2022-10-08T06:13:53.111Z,8.43
2022-10-08T06:16:55.585Z,12.35
2022-10-08T06:19:58.068Z,8.57
2022-10-08T06:23:01.853Z,16.30
2022-10-08T06:26:05.237Z,9.52
2022-10-08T06:29:11.350Z,11.45
2022-10-08T06:32:13.798Z,9.52
2022-10-08T06:35:16.529Z,7.93
2022-10-08T06:38:20.329Z,12.30
2022-10-08T06:41:23.810Z,8.35
2022-10-08T06:44:26.326Z,7.28
2022-10-08T06:47:29.214Z,11.65
2022-10-08T06:50:31.789Z,7.75
2022-10-08T06:53:36.457Z,12.25
2022-10-08T06:56:39.337Z,9.93
2022-10-08T06:59:41.820Z,11.82
2022-10-08T07:02:44.717Z,8.38
2022-10-08T07:05:47.425Z,7.40
2022-10-08T07:08:54.927Z,9.60
2022-10-08T07:11:57.520Z,9.68
2022-10-08T07:15:00.385Z,9.15
2022-10-08T07:18:02.868Z,11.23
2022-10-08T07:21:06.433Z,9.13
2022-10-08T07:24:10.325Z,8.25
2022-10-08T07:27:12.855Z,8.40
2022-10-08T07:30:15.646Z,9.45
2022-10-08T07:33:18.178Z,9.63
2022-10-08T07:36:22.235Z,14.35
2022-10-08T07:39:26.567Z,8.90
2022-10-08T07:42:29.051Z,9.30
2022-10-08T07:45:32.089Z,7.00
2022-10-08T07:48:36.082Z,13.68
2022-10-08T07:51:38.859Z,10.65
2022-10-08T07:54:45.279Z,7.63
2022-10-08T07:57:47.761Z,10.80
2022-10-08T08:00:50.878Z,10.45
2022-10-08T08:03:54.225Z,11.25
2022-10-08T08:06:56.696Z,7.47
2022-10-08T08:10:00.487Z,10.32
2022-10-08T08:13:03.028Z,7.55
2022-10-08T08:16:07.548Z,9.85
2022-10-08T08:19:10.181Z,10.88
2022-10-08T08:22:12.669Z,8.60
2022-10-08T08:25:16.541Z,13.95
2022-10-08T08:28:19.032Z,11.73
2022-10-08T08:31:24.032Z,10.43
2022-10-08T08:34:26.796Z,8.80
2022-10-08T08:37:29.320Z,13.88
2022-10-08T08:40:33.108Z,7.10
2022-10-08T08:43:35.646Z,9.93
2022-10-08T08:46:44.089Z,8.60
2022-10-08T08:49:51.768Z,12.05
2022-10-08T08:52:54.731Z,10.50
2022-10-08T08:56:00.995Z,7.28
2022-10-08T08:59:08.476Z,9.27
2022-10-08T09:02:19.685Z,7.00
2022-10-08T09:05:25.829Z,10.45
2022-10-08T09:08:32.402Z,12.93
2022-10-08T09:11:39.405Z,11.05
2022-10-08T09:14:44.972Z,8.52
2022-10-08T09:17:52.785Z,8.52
2022-10-08T09:20:55.245Z,8.02
2022-10-08T09:23:57.758Z,13.52
2022-10-08T09:27:01.930Z,17.25
2022-10-08T09:30:04.771Z,10.32
2022-10-08T09:33:23.203Z,13.82
2022-10-08T09:36:36.120Z,10.35
2022-10-08T09:39:38.730Z,10.63
2022-10-08T09:42:43.184Z,8.00
2022-10-08T09:45:47.648Z,11.77
2022-10-08T09:48:50.211Z,7.30
2022-10-08T09:51:53.479Z,8.00
2022-10-08T09:55:01.442Z,7.00
2022-10-08T09:58:05.568Z,8.05
2022-10-08T10:01:15.225Z,13.77
2022-10-08T10:04:20.645Z,9.40
2022-10-08T10:07:23.477Z,9.88
2022-10-08T10:10:29.740Z,13.85
2022-10-08T10:13:37.068Z,13.75
2022-10-08T10:16:42.299Z,14.65
2022-10-08T10:19:52.581Z,11.90
2022-10-08T10:22:59.718Z,9.82
2022-10-08T10:26:06.891Z,10.65
2022-10-08T10:29:16.711Z,16.23
2022-10-08T10:32:23.879Z,12.52
2022-10-08T10:35:28.311Z,8.30
2022-10-08T10:38:33.306Z,8.13
2022-10-08T10:41:43.194Z,9.35
2022-10-08T10:44:54.232Z,12.77
2022-10-08T10:47:56.772Z,12.93
2022-10-08T10:51:16.226Z,9.00
2022-10-08T10:54:42.685Z,6.43
2022-10-08T10:58:00.778Z,7.45
2022-10-08T11:01:16.942Z,9.45
2022-10-08T11:04:30.459Z,8.60
2022-10-08T11:07:50.534Z,14.68
2022-10-08T11:11:06.460Z,11.00
2022-10-08T11:14:35.291Z,10.15
2022-10-08T11:17:53.715Z,11.23
2022-10-08T11:21:10.551Z,8.15
2022-10-08T11:24:41.330Z,8.57
2022-10-08T11:27:57.333Z,9.90
2022-10-08T11:31:11.784Z,8.55
2022-10-08T11:34:23.406Z,6.03
2022-10-08T11:37:32.409Z,5.55
2022-10-08T11:40:40.689Z,7.80
2022-10-08T11:43:53.425Z,9.30
2022-10-08T11:47:35.243Z,7.18
2022-10-08T11:50:41.084Z,9.27
2022-10-08T11:53:44.426Z,5.90
2022-10-08T11:56:49.733Z,8.13
2022-10-08T12:00:03.119Z,10.20
2022-10-08T12:03:24.255Z,5.97
2022-10-08T12:06:31.225Z,5.18
2022-10-08T12:10:03.040Z,5.97
2022-10-08T12:13:31.198Z,10.23
2022-10-08T12:17:08.645Z,8.05
2022-10-08T12:20:21.068Z,12.00
2022-10-08T12:27:27.448Z,8.55
2022-10-08T12:31:16.515Z,5.25
2022-10-08T12:42:38.864Z,7.63
2022-10-08T12:46:12.165Z,7.85
2022-10-08T12:49:43.109Z,9.75
2022-10-08T12:53:18.398Z,5.60
2022-10-08T12:56:38.754Z,7.07
2022-10-08T13:00:02.304Z,10.02
2022-10-08T13:03:25.504Z,10.75
2022-10-08T13:06:59.232Z,9.00
2022-10-08T13:10:43.042Z,6.72
2022-10-08T13:14:19.273Z,5.57
2022-10-08T13:17:50.921Z,6.13
2022-10-08T13:21:34.386Z,7.50
2022-10-08T13:25:17.364Z,11.48
2022-10-08T13:37:27.305Z,8.75
2022-10-08T13:40:39.604Z,5.40
2022-10-08T13:43:43.060Z,9.50
2022-10-08T13:46:50.928Z,8.98
2022-10-08T13:50:02.253Z,7.55
2022-10-08T13:53:20.149Z,5.10
2022-10-08T13:56:32.672Z,4.82
2022-10-08T13:59:44.035Z,5.80
2022-10-08T14:02:53.774Z,5.47
2022-10-08T14:06:15.203Z,6.25
2022-10-08T14:09:48.621Z,8.43
2022-10-08T14:13:01.343Z,5.97
2022-10-08T14:16:30.995Z,5.00
2022-10-08T14:19:46.192Z,5.70
2022-10-08T14:23:13.898Z,11.90
2022-10-08T14:26:31.989Z,7.43
2022-10-08T14:29:39.173Z,5.15
2022-10-08T14:36:26.667Z,10.32
2022-10-08T14:39:38.956Z,5.30
2022-10-08T14:43:02.528Z,6.70
2022-10-08T14:46:18.906Z,8.07
2022-10-08T14:49:32.350Z,5.55
2022-10-08T14:52:50.082Z,4.13
2022-10-08T14:56:11.590Z,9.23
2022-10-08T14:59:40.686Z,5.10
2022-10-08T15:02:59.769Z,8.23
2022-10-08T15:06:09.374Z,9.00
2022-10-08T15:09:30.651Z,6.93
2022-10-08T15:13:11.478Z,8.10
2022-10-08T15:16:17.694Z,11.48
2022-10-08T15:19:32.025Z,4.38
2022-10-08T15:22:55.069Z,6.65
2022-10-08T15:26:09.966Z,6.25
2022-10-08T15:33:08.431Z,3.45
2022-10-08T15:40:12.741Z,4.85
2022-10-08T15:43:35.955Z,5.63
2022-10-08T15:46:59.103Z,3.72
2022-10-08T15:50:43.722Z,7.95
2022-10-08T15:54:19.597Z,6.72
2022-10-08T15:58:07.275Z,5.07
2022-10-08T16:01:39.290Z,7.07
2022-10-08T16:04:51.083Z,3.10
2022-10-08T16:08:18.311Z,4.72
2022-10-08T16:11:45.053Z,6.40
2022-10-08T16:15:04.313Z,3.92
2022-10-08T16:18:38.534Z,2.53
2022-10-08T16:22:02.798Z,4.43
2022-10-08T16:25:42.327Z,4.75
2022-10-08T16:28:57.471Z,3.45
2022-10-08T16:32:06.916Z,4.70
2022-10-08T16:35:28.789Z,4.05
2022-10-08T16:38:57.749Z,5.50
2022-10-08T16:42:16.173Z,2.05
2022-10-08T16:45:30.713Z,4.13
2022-10-08T16:48:57.838Z,4.25
2022-10-08T16:52:23.707Z,5.75
2022-10-08T16:55:38.911Z,3.75
2022-10-08T16:58:59.598Z,3.72
2022-10-08T17:02:03.374Z,3.65
2022-10-08T17:05:07.070Z,2.75
2022-10-08T17:08:09.546Z,3.25
2022-10-08T17:11:13.520Z,5.72
2022-10-08T17:14:17.417Z,6.22
2022-10-08T17:17:19.926Z,5.18
2022-10-08T17:20:22.405Z,4.78
2022-10-08T17:23:26.012Z,6.22
2022-10-08T17:26:29.601Z,3.95
2022-10-08T17:29:33.474Z,2.47
2022-10-08T17:32:35.972Z,3.60
2022-10-08T17:35:38.459Z,5.50
2022-10-08T17:38:42.436Z,5.80
2022-10-08T17:41:44.957Z,3.20
2022-10-08T17:44:48.770Z,3.50
2022-10-08T17:47:51.313Z,3.25
2022-10-08T17:50:53.786Z,2.88
2022-10-08T17:53:57.818Z,4.82
2022-10-08T17:57:00.543Z,3.63
2022-10-08T18:00:04.889Z,4.63
2022-10-08T18:03:07.612Z,4.75
2022-10-08T18:06:12.129Z,9.32
2022-10-08T18:09:16.343Z,6.18
2022-10-08T18:12:18.995Z,3.70
2022-10-08T18:15:24.027Z,2.90
2022-10-08T18:18:26.552Z,3.15
2022-10-08T18:21:29.054Z,4.15
2022-10-08T18:24:31.545Z,4.68
2022-10-08T18:27:33.993Z,5.50
2022-10-08T18:30:37.772Z,4.90
2022-10-08T18:33:41.938Z,8.20
2022-10-08T18:36:45.072Z,4.90
2022-10-08T18:39:47.822Z,4.55
2022-10-08T18:42:50.575Z,4.78
2022-10-08T18:45:54.597Z,4.13
2022-10-08T18:48:57.616Z,6.95
2022-10-08T18:52:01.466Z,4.60
2022-10-08T18:55:04.048Z,6.88
2022-10-08T18:58:06.554Z,4.70
2022-10-08T19:01:17.974Z,4.45
2022-10-08T19:04:22.542Z,5.32
2022-10-08T19:07:25.134Z,5.22
2022-10-08T19:10:27.609Z,6.05
2022-10-08T19:13:30.081Z,4.72
2022-10-08T19:16:36.399Z,5.30
2022-10-08T19:19:38.860Z,4.18
2022-10-08T19:22:41.366Z,4.78
2022-10-08T19:25:43.831Z,3.20
2022-10-08T19:28:48.291Z,5.13
2022-10-08T19:31:56.648Z,7.85
2022-10-08T19:34:59.118Z,5.03
2022-10-08T19:38:02.042Z,7.38
2022-10-08T19:41:07.788Z,6.43
2022-10-08T19:44:11.635Z,6.68
2022-10-08T19:47:15.462Z,5.70
2022-10-08T19:50:17.982Z,9.65
2022-10-08T19:53:20.463Z,12.40
2022-10-08T19:56:23.557Z,6.55
2022-10-08T19:59:26.252Z,3.95
2022-10-08T20:02:30.137Z,6.47
2022-10-08T20:05:35.750Z,5.05
2022-10-08T20:08:38.407Z,6.93
2022-10-08T20:11:42.008Z,3.53
2022-10-08T20:14:44.500Z,4.93
2022-10-08T20:17:50.331Z,5.10
2022-10-08T20:21:00.918Z,6.68
2022-10-08T20:24:04.347Z,9.15
2022-10-08T20:27:06.821Z,3.28
2022-10-08T20:30:09.832Z,4.40
2022-10-08T20:33:13.631Z,5.93
2022-10-08T20:36:18.005Z,4.45
2022-10-08T20:39:22.927Z,4.55
2022-10-08T20:42:27.017Z,4.28
2022-10-08T20:45:29.499Z,6.53
2022-10-08T20:48:34.154Z,4.75
2022-10-08T20:51:39.915Z,4.25
2022-10-08T20:54:42.392Z,5.47
2022-10-08T20:57:44.858Z,2.88
2022-10-08T21:00:47.337Z,4.72
2022-10-08T21:03:51.935Z,4.45
2022-10-08T21:06:54.604Z,2.85
2022-10-08T21:09:57.106Z,6.05
2022-10-08T21:12:59.579Z,10.60
2022-10-08T21:16:05.146Z,7.45
2022-10-08T21:19:12.169Z,8.02
2022-10-08T21:22:14.640Z,5.40
2022-10-08T21:25:17.218Z,6.50
2022-10-08T21:28:19.732Z,4.90
2022-10-08T21:31:25.143Z,5.88
2022-10-08T21:34:29.041Z,6.93
2022-10-08T21:37:31.582Z,5.70
2022-10-08T21:40:34.028Z,5.57
2022-10-08T21:43:36.501Z,6.18
2022-10-08T21:46:41.093Z,7.45
2022-10-08T21:49:45.006Z,11.18
2022-10-08T21:52:47.679Z,5.47
2022-10-08T21:55:55.421Z,5.63
2022-10-08T21:58:59.821Z,8.48
2022-10-08T22:02:02.438Z,8.50
2022-10-08T22:05:06.879Z,6.00
2022-10-08T22:08:09.367Z,7.40
2022-10-08T22:11:11.850Z,8.18
2022-10-08T22:14:14.686Z,5.80
2022-10-08T22:17:17.166Z,4.32
2022-10-08T22:20:21.350Z,9.85
2022-10-08T22:23:24.093Z,11.38
2022-10-08T22:26:30.400Z,2.65
2022-10-08T22:29:34.199Z,8.30
2022-10-08T22:32:36.681Z,8.02
2022-10-08T22:35:40.465Z,4.72
2022-10-08T22:38:44.801Z,6.60
2022-10-08T22:41:47.279Z,8.38
2022-10-08T22:44:51.034Z,8.48
2022-10-08T22:47:53.648Z,6.40
2022-10-08T22:51:01.766Z,8.15
2022-10-08T22:54:04.979Z,5.68
2022-10-08T22:57:07.466Z,6.07
2022-10-08T23:00:11.712Z,8.70
2022-10-08T23:03:14.327Z,7.85
2022-10-08T23:06:20.612Z,7.50
2022-10-08T23:09:23.084Z,8.50
2022-10-08T23:12:25.598Z,6.97
2022-10-08T23:15:28.069Z,4.03
2022-10-08T23:18:31.530Z,2.97
2022-10-08T23:21:36.853Z,10.40
2022-10-08T23:24:39.300Z,5.80
2022-10-08T23:27:41.774Z,4.57
2022-10-08T23:30:44.236Z,5.63
2022-10-08T23:33:48.378Z,6.20
2022-10-08T23:36:52.170Z,4.97
2022-10-08T23:39:57.957Z,6.40
2022-10-08T23:43:00.768Z,7.88
2022-10-08T23:46:03.386Z,7.07
2022-10-08T23:49:05.987Z,9.32
2022-10-08T23:52:09.819Z,7.03
2022-10-08T23:55:12.638Z,3.10
2022-10-08T23:58:17.877Z,5.80
